sensor_id;sensor_type;location;lat;lon;timestamp;P1;durP1;ratioP1;P2;durP2;ratioP2
60851;SDS011;48553;50.766;2.900;2023-10-19T00:00:37;2.17;;;0.55;;
60851;SDS011;48553;50.766;2.900;2023-10-19T00:03:44;4.95;;;0.70;;
60851;SDS011;48553;50.766;2.900;2023-10-19T00:06:44;2.65;;;0.60;;
60851;SDS011;48553;50.766;2.900;2023-10-19T00:09:45;2.25;;;0.50;;
60851;SDS011;48553;50.766;2.900;2023-10-19T00:12:48;1.92;;;0.52;;
60851;SDS011;48553;50.766;2.900;2023-10-19T00:15:57;2.20;;;0.55;;
60851;SDS011;48553;50.766;2.900;2023-10-19T00:18:58;3.13;;;0.60;;
60851;SDS011;48553;50.766;2.900;2023-10-19T00:22:00;2.75;;;0.60;;
60851;SDS011;48553;50.766;2.900;2023-10-19T00:25:08;3.40;;;0.55;;
60851;SDS011;48553;50.766;2.900;2023-10-19T00:28:13;2.17;;;0.60;;
60851;SDS011;48553;50.766;2.900;2023-10-19T00:31:15;3.95;;;0.70;;
60851;SDS011;48553;50.766;2.900;2023-10-19T00:34:16;4.47;;;0.60;;
60851;SDS011;48553;50.766;2.900;2023-10-19T00:37:16;3.63;;;0.80;;
60851;SDS011;48553;50.766;2.900;2023-10-19T00:40:20;3.83;;;0.60;;
60851;SDS011;48553;50.766;2.900;2023-10-19T00:43:34;4.47;;;0.73;;
60851;SDS011;48553;50.766;2.900;2023-10-19T00:46:36;4.43;;;0.70;;
60851;SDS011;48553;50.766;2.900;2023-10-19T00:49:43;2.78;;;0.70;;
60851;SDS011;48553;50.766;2.900;2023-10-19T00:52:44;2.63;;;0.60;;
60851;SDS011;48553;50.766;2.900;2023-10-19T00:55:49;4.47;;;0.80;;
60851;SDS011;48553;50.766;2.900;2023-10-19T00:58:52;5.38;;;0.90;;
60851;SDS011;48553;50.766;2.900;2023-10-19T01:01:56;3.88;;;0.60;;
60851;SDS011;48553;50.766;2.900;2023-10-19T01:05:15;5.05;;;0.70;;
60851;SDS011;48553;50.766;2.900;2023-10-19T01:08:21;6.53;;;0.90;;
60851;SDS011;48553;50.766;2.900;2023-10-19T01:11:31;5.90;;;0.80;;
60851;SDS011;48553;50.766;2.900;2023-10-19T01:14:35;2.08;;;0.60;;
60851;SDS011;48553;50.766;2.900;2023-10-19T01:17:37;3.58;;;0.73;;
60851;SDS011;48553;50.766;2.900;2023-10-19T01:20:40;4.07;;;0.75;;
60851;SDS011;48553;50.766;2.900;2023-10-19T01:23:55;2.53;;;0.70;;
60851;SDS011;48553;50.766;2.900;2023-10-19T01:26:55;2.63;;;0.75;;
60851;SDS011;48553;50.766;2.900;2023-10-19T01:29:57;5.95;;;0.68;;
60851;SDS011;48553;50.766;2.900;2023-10-19T01:33:02;5.32;;;1.00;;
60851;SDS011;48553;50.766;2.900;2023-10-19T01:36:04;7.32;;;1.02;;
60851;SDS011;48553;50.766;2.900;2023-10-19T01:39:10;4.32;;;0.90;;
60851;SDS011;48553;50.766;2.900;2023-10-19T01:42:11;5.15;;;0.90;;
60851;SDS011;48553;50.766;2.900;2023-10-19T01:45:12;3.08;;;0.60;;
60851;SDS011;48553;50.766;2.900;2023-10-19T01:48:12;3.60;;;0.90;;
60851;SDS011;48553;50.766;2.900;2023-10-19T01:51:13;5.00;;;0.98;;
60851;SDS011;48553;50.766;2.900;2023-10-19T01:54:13;4.05;;;0.90;;
60851;SDS011;48553;50.766;2.900;2023-10-19T02:00:26;4.80;;;0.85;;
60851;SDS011;48553;50.766;2.900;2023-10-19T02:03:26;4.55;;;0.80;;
60851;SDS011;48553;50.766;2.900;2023-10-19T02:06:29;6.00;;;0.90;;
60851;SDS011;48553;50.766;2.900;2023-10-19T02:09:30;4.25;;;0.70;;
60851;SDS011;48553;50.766;2.900;2023-10-19T02:12:32;4.72;;;0.70;;
60851;SDS011;48553;50.766;2.900;2023-10-19T02:15:34;3.97;;;0.90;;
60851;SDS011;48553;50.766;2.900;2023-10-19T02:18:35;4.38;;;0.75;;
60851;SDS011;48553;50.766;2.900;2023-10-19T02:21:35;4.07;;;0.90;;
60851;SDS011;48553;50.766;2.900;2023-10-19T02:24:42;6.53;;;1.00;;
60851;SDS011;48553;50.766;2.900;2023-10-19T02:27:43;2.97;;;0.82;;
60851;SDS011;48553;50.766;2.900;2023-10-19T02:30:44;2.47;;;0.65;;
60851;SDS011;48553;50.766;2.900;2023-10-19T02:33:45;5.43;;;0.95;;
60851;SDS011;48553;50.766;2.900;2023-10-19T02:36:46;4.10;;;0.80;;
60851;SDS011;48553;50.766;2.900;2023-10-19T02:39:49;5.82;;;0.90;;
60851;SDS011;48553;50.766;2.900;2023-10-19T02:42:49;5.55;;;0.77;;
60851;SDS011;48553;50.766;2.900;2023-10-19T02:45:56;6.30;;;0.80;;
60851;SDS011;48553;50.766;2.900;2023-10-19T02:48:56;6.90;;;0.90;;
60851;SDS011;48553;50.766;2.900;2023-10-19T02:52:00;3.67;;;0.80;;
60851;SDS011;48553;50.766;2.900;2023-10-19T02:55:04;3.10;;;0.80;;
60851;SDS011;48553;50.766;2.900;2023-10-19T02:58:05;3.22;;;0.77;;
60851;SDS011;48553;50.766;2.900;2023-10-19T03:01:11;3.90;;;0.80;;
60851;SDS011;48553;50.766;2.900;2023-10-19T03:04:13;4.18;;;0.90;;
60851;SDS011;48553;50.766;2.900;2023-10-19T03:07:15;2.95;;;0.75;;
60851;SDS011;48553;50.766;2.900;2023-10-19T03:10:15;5.10;;;0.95;;
60851;SDS011;48553;50.766;2.900;2023-10-19T03:13:34;7.50;;;0.88;;
60851;SDS011;48553;50.766;2.900;2023-10-19T03:16:38;6.22;;;0.75;;
60851;SDS011;48553;50.766;2.900;2023-10-19T03:19:42;4.63;;;0.95;;
60851;SDS011;48553;50.766;2.900;2023-10-19T03:22:42;7.68;;;1.27;;
60851;SDS011;48553;50.766;2.900;2023-10-19T03:25:43;4.00;;;0.73;;
60851;SDS011;48553;50.766;2.900;2023-10-19T03:29:02;4.43;;;0.98;;
60851;SDS011;48553;50.766;2.900;2023-10-19T03:32:08;7.07;;;1.02;;
60851;SDS011;48553;50.766;2.900;2023-10-19T03:35:09;4.97;;;1.00;;
60851;SDS011;48553;50.766;2.900;2023-10-19T03:38:15;6.13;;;0.90;;
60851;SDS011;48553;50.766;2.900;2023-10-19T03:41:17;6.57;;;1.20;;
60851;SDS011;48553;50.766;2.900;2023-10-19T03:44:21;5.30;;;1.13;;
60851;SDS011;48553;50.766;2.900;2023-10-19T03:47:25;3.58;;;1.00;;
60851;SDS011;48553;50.766;2.900;2023-10-19T03:50:28;6.55;;;1.00;;
60851;SDS011;48553;50.766;2.900;2023-10-19T03:53:29;9.40;;;1.38;;
60851;SDS011;48553;50.766;2.900;2023-10-19T03:56:30;8.57;;;1.45;;
60851;SDS011;48553;50.766;2.900;2023-10-19T03:59:33;7.57;;;1.23;;
60851;SDS011;48553;50.766;2.900;2023-10-19T04:02:34;6.07;;;1.20;;
60851;SDS011;48553;50.766;2.900;2023-10-19T04:05:37;5.35;;;1.00;;
60851;SDS011;48553;50.766;2.900;2023-10-19T04:08:38;6.93;;;1.30;;
60851;SDS011;48553;50.766;2.900;2023-10-19T04:11:39;9.32;;;1.20;;
60851;SDS011;48553;50.766;2.900;2023-10-19T04:14:58;8.30;;;1.50;;
60851;SDS011;48553;50.766;2.900;2023-10-19T04:18:09;7.60;;;1.30;;
60851;SDS011;48553;50.766;2.900;2023-10-19T04:21:10;6.28;;;1.33;;
60851;SDS011;48553;50.766;2.900;2023-10-19T04:24:10;5.38;;;1.20;;
60851;SDS011;48553;50.766;2.900;2023-10-19T04:27:11;9.95;;;1.63;;
60851;SDS011;48553;50.766;2.900;2023-10-19T04:30:13;8.75;;;1.30;;
60851;SDS011;48553;50.766;2.900;2023-10-19T04:33:33;3.95;;;1.13;;
60851;SDS011;48553;50.766;2.900;2023-10-19T04:36:36;8.40;;;1.60;;
60851;SDS011;48553;50.766;2.900;2023-10-19T04:39:39;9.77;;;1.60;;
60851;SDS011;48553;50.766;2.900;2023-10-19T04:42:40;5.35;;;1.20;;
60851;SDS011;48553;50.766;2.900;2023-10-19T04:45:40;4.78;;;1.13;;
60851;SDS011;48553;50.766;2.900;2023-10-19T04:48:41;5.13;;;1.27;;
60851;SDS011;48553;50.766;2.900;2023-10-19T04:51:42;7.50;;;1.50;;
60851;SDS011;48553;50.766;2.900;2023-10-19T04:54:43;7.82;;;1.60;;
60851;SDS011;48553;50.766;2.900;2023-10-19T04:57:44;8.15;;;1.60;;
60851;SDS011;48553;50.766;2.900;2023-10-19T05:00:44;9.65;;;1.67;;
60851;SDS011;48553;50.766;2.900;2023-10-19T05:03:45;9.25;;;1.77;;
60851;SDS011;48553;50.766;2.900;2023-10-19T05:06:45;7.68;;;1.35;;
60851;SDS011;48553;50.766;2.900;2023-10-19T05:09:46;12.35;;;1.67;;
60851;SDS011;48553;50.766;2.900;2023-10-19T05:12:47;10.45;;;1.50;;
60851;SDS011;48553;50.766;2.900;2023-10-19T05:15:47;9.32;;;1.50;;
60851;SDS011;48553;50.766;2.900;2023-10-19T05:18:48;9.70;;;1.77;;
60851;SDS011;48553;50.766;2.900;2023-10-19T05:21:48;7.88;;;1.20;;
60851;SDS011;48553;50.766;2.900;2023-10-19T05:24:49;8.73;;;1.80;;
60851;SDS011;48553;50.766;2.900;2023-10-19T05:27:49;10.85;;;1.70;;
60851;SDS011;48553;50.766;2.900;2023-10-19T05:30:49;10.18;;;1.60;;
60851;SDS011;48553;50.766;2.900;2023-10-19T05:33:50;9.85;;;1.90;;
60851;SDS011;48553;50.766;2.900;2023-10-19T05:36:51;9.07;;;1.70;;
60851;SDS011;48553;50.766;2.900;2023-10-19T05:39:51;10.00;;;1.70;;
60851;SDS011;48553;50.766;2.900;2023-10-19T05:42:52;8.68;;;1.58;;
60851;SDS011;48553;50.766;2.900;2023-10-19T05:45:52;5.50;;;1.58;;
60851;SDS011;48553;50.766;2.900;2023-10-19T05:48:53;11.93;;;1.77;;
60851;SDS011;48553;50.766;2.900;2023-10-19T05:51:56;9.02;;;1.90;;
60851;SDS011;48553;50.766;2.900;2023-10-19T05:54:56;7.95;;;1.73;;
60851;SDS011;48553;50.766;2.900;2023-10-19T05:57:57;10.93;;;2.00;;
60851;SDS011;48553;50.766;2.900;2023-10-19T06:00:58;8.32;;;1.75;;
60851;SDS011;48553;50.766;2.900;2023-10-19T06:03:59;13.63;;;1.73;;
60851;SDS011;48553;50.766;2.900;2023-10-19T06:06:59;10.02;;;2.08;;
60851;SDS011;48553;50.766;2.900;2023-10-19T06:10:00;9.00;;;1.95;;
60851;SDS011;48553;50.766;2.900;2023-10-19T06:13:04;10.15;;;1.80;;
60851;SDS011;48553;50.766;2.900;2023-10-19T06:16:09;9.93;;;1.92;;
60851;SDS011;48553;50.766;2.900;2023-10-19T06:19:10;8.80;;;1.52;;
60851;SDS011;48553;50.766;2.900;2023-10-19T06:25:13;7.72;;;1.73;;
60851;SDS011;48553;50.766;2.900;2023-10-19T06:34:28;10.63;;;2.35;;
60851;SDS011;48553;50.766;2.900;2023-10-19T06:43:42;11.60;;;2.13;;
60851;SDS011;48553;50.766;2.900;2023-10-19T06:56:15;12.88;;;2.40;;
60851;SDS011;48553;50.766;2.900;2023-10-19T07:09:15;11.90;;;2.10;;
60851;SDS011;48553;50.766;2.900;2023-10-19T07:18:40;6.75;;;1.90;;
60851;SDS011;48553;50.766;2.900;2023-10-19T07:31:17;7.30;;;1.80;;
60851;SDS011;48553;50.766;2.900;2023-10-19T07:34:18;10.60;;;2.25;;
60851;SDS011;48553;50.766;2.900;2023-10-19T07:37:18;8.63;;;2.22;;
60851;SDS011;48553;50.766;2.900;2023-10-19T07:43:31;8.25;;;1.98;;
60851;SDS011;48553;50.766;2.900;2023-10-19T07:52:53;12.88;;;2.10;;
60851;SDS011;48553;50.766;2.900;2023-10-19T08:05:20;10.32;;;2.47;;
60851;SDS011;48553;50.766;2.900;2023-10-19T08:08:21;12.65;;;2.70;;
60851;SDS011;48553;50.766;2.900;2023-10-19T08:11:24;8.88;;;2.30;;
60851;SDS011;48553;50.766;2.900;2023-10-19T08:14:25;10.32;;;2.65;;
60851;SDS011;48553;50.766;2.900;2023-10-19T08:17:26;10.25;;;2.60;;
60851;SDS011;48553;50.766;2.900;2023-10-19T08:20:26;10.52;;;2.38;;
60851;SDS011;48553;50.766;2.900;2023-10-19T08:23:32;14.75;;;2.60;;
60851;SDS011;48553;50.766;2.900;2023-10-19T08:26:33;11.55;;;2.50;;
60851;SDS011;48553;50.766;2.900;2023-10-19T08:29:36;10.13;;;2.25;;
60851;SDS011;48553;50.766;2.900;2023-10-19T08:32:37;11.75;;;2.67;;
60851;SDS011;48553;50.766;2.900;2023-10-19T08:35:37;9.43;;;2.20;;
60851;SDS011;48553;50.766;2.900;2023-10-19T08:38:38;12.43;;;2.63;;
60851;SDS011;48553;50.766;2.900;2023-10-19T08:41:41;11.48;;;2.30;;
60851;SDS011;48553;50.766;2.900;2023-10-19T08:44:43;9.23;;;2.25;;
60851;SDS011;48553;50.766;2.900;2023-10-19T08:47:44;8.55;;;2.10;;
60851;SDS011;48553;50.766;2.900;2023-10-19T08:50:56;10.55;;;2.30;;
60851;SDS011;48553;50.766;2.900;2023-10-19T08:53:57;10.50;;;1.98;;
60851;SDS011;48553;50.766;2.900;2023-10-19T08:56:58;8.25;;;2.17;;
60851;SDS011;48553;50.766;2.900;2023-10-19T08:59:59;10.45;;;2.20;;
60851;SDS011;48553;50.766;2.900;2023-10-19T09:03:01;6.22;;;1.88;;
60851;SDS011;48553;50.766;2.900;2023-10-19T09:06:05;7.03;;;1.77;;
60851;SDS011;48553;50.766;2.900;2023-10-19T09:09:05;7.03;;;1.90;;
60851;SDS011;48553;50.766;2.900;2023-10-19T09:12:09;8.80;;;1.70;;
60851;SDS011;48553;50.766;2.900;2023-10-19T09:15:22;8.98;;;2.10;;
60851;SDS011;48553;50.766;2.900;2023-10-19T09:18:26;7.93;;;1.65;;
60851;SDS011;48553;50.766;2.900;2023-10-19T09:21:27;11.57;;;2.20;;
60851;SDS011;48553;50.766;2.900;2023-10-19T09:24:28;9.10;;;1.70;;
60851;SDS011;48553;50.766;2.900;2023-10-19T09:27:28;10.10;;;1.83;;
60851;SDS011;48553;50.766;2.900;2023-10-19T09:30:29;10.70;;;2.08;;
60851;SDS011;48553;50.766;2.900;2023-10-19T09:33:31;6.88;;;1.80;;
60851;SDS011;48553;50.766;2.900;2023-10-19T09:36:33;9.77;;;2.00;;
60851;SDS011;48553;50.766;2.900;2023-10-19T09:39:34;6.97;;;1.45;;
60851;SDS011;48553;50.766;2.900;2023-10-19T09:42:35;7.15;;;1.98;;
60851;SDS011;48553;50.766;2.900;2023-10-19T09:45:36;6.05;;;1.77;;
60851;SDS011;48553;50.766;2.900;2023-10-19T09:48:43;7.10;;;1.80;;
60851;SDS011;48553;50.766;2.900;2023-10-19T09:51:45;9.87;;;1.80;;
60851;SDS011;48553;50.766;2.900;2023-10-19T09:54:54;8.20;;;2.05;;
60851;SDS011;48553;50.766;2.900;2023-10-19T09:58:06;11.40;;;2.20;;
60851;SDS011;48553;50.766;2.900;2023-10-19T10:01:15;7.35;;;2.17;;
60851;SDS011;48553;50.766;2.900;2023-10-19T10:04:31;6.00;;;1.70;;
60851;SDS011;48553;50.766;2.900;2023-10-19T10:07:32;8.00;;;1.88;;
60851;SDS011;48553;50.766;2.900;2023-10-19T10:10:33;9.85;;;1.90;;
60851;SDS011;48553;50.766;2.900;2023-10-19T10:16:37;9.98;;;1.90;;
60851;SDS011;48553;50.766;2.900;2023-10-19T10:19:37;10.40;;;1.85;;
60851;SDS011;48553;50.766;2.900;2023-10-19T10:22:38;7.95;;;1.85;;
60851;SDS011;48553;50.766;2.900;2023-10-19T10:25:41;7.70;;;1.73;;
60851;SDS011;48553;50.766;2.900;2023-10-19T10:28:48;9.30;;;1.80;;
60851;SDS011;48553;50.766;2.900;2023-10-19T10:32:09;7.30;;;1.40;;
60851;SDS011;48553;50.766;2.900;2023-10-19T10:35:52;8.13;;;1.25;;
60851;SDS011;48553;50.766;2.900;2023-10-19T10:38:53;6.22;;;1.67;;
60851;SDS011;48553;50.766;2.900;2023-10-19T10:42:05;6.82;;;1.75;;
60851;SDS011;48553;50.766;2.900;2023-10-19T10:45:07;7.15;;;1.50;;
60851;SDS011;48553;50.766;2.900;2023-10-19T10:48:18;8.95;;;1.50;;
60851;SDS011;48553;50.766;2.900;2023-10-19T10:51:19;5.82;;;1.45;;
60851;SDS011;48553;50.766;2.900;2023-10-19T10:54:23;7.78;;;1.73;;
60851;SDS011;48553;50.766;2.900;2023-10-19T10:57:24;9.25;;;1.85;;
60851;SDS011;48553;50.766;2.900;2023-10-19T11:00:31;7.90;;;1.52;;
60851;SDS011;48553;50.766;2.900;2023-10-19T11:03:34;8.32;;;1.60;;
60851;SDS011;48553;50.766;2.900;2023-10-19T11:06:53;9.20;;;1.70;;
60851;SDS011;48553;50.766;2.900;2023-10-19T11:09:56;9.20;;;1.65;;
60851;SDS011;48553;50.766;2.900;2023-10-19T11:13:07;8.88;;;1.88;;
60851;SDS011;48553;50.766;2.900;2023-10-19T11:16:09;8.80;;;1.70;;
60851;SDS011;48553;50.766;2.900;2023-10-19T11:19:09;5.40;;;2.08;;
60851;SDS011;48553;50.766;2.900;2023-10-19T11:22:10;7.30;;;1.60;;
60851;SDS011;48553;50.766;2.900;2023-10-19T11:25:17;5.72;;;1.70;;
60851;SDS011;48553;50.766;2.900;2023-10-19T11:28:19;8.38;;;2.10;;
60851;SDS011;48553;50.766;2.900;2023-10-19T11:31:21;7.63;;;1.70;;
60851;SDS011;48553;50.766;2.900;2023-10-19T11:34:22;6.68;;;1.92;;
60851;SDS011;48553;50.766;2.900;2023-10-19T11:37:24;7.15;;;1.83;;
60851;SDS011;48553;50.766;2.900;2023-10-19T11:40:24;8.75;;;1.90;;
60851;SDS011;48553;50.766;2.900;2023-10-19T11:43:26;5.03;;;1.73;;
60851;SDS011;48553;50.766;2.900;2023-10-19T11:46:26;6.70;;;1.80;;
60851;SDS011;48553;50.766;2.900;2023-10-19T11:49:27;8.10;;;1.90;;
60851;SDS011;48553;50.766;2.900;2023-10-19T11:52:27;4.25;;;1.70;;
60851;SDS011;48553;50.766;2.900;2023-10-19T11:55:29;6.60;;;1.70;;
60851;SDS011;48553;50.766;2.900;2023-10-19T11:58:34;6.35;;;1.85;;
60851;SDS011;48553;50.766;2.900;2023-10-19T12:01:37;10.52;;;2.08;;
60851;SDS011;48553;50.766;2.900;2023-10-19T12:04:38;4.63;;;1.60;;
60851;SDS011;48553;50.766;2.900;2023-10-19T12:07:39;4.88;;;1.80;;
60851;SDS011;48553;50.766;2.900;2023-10-19T12:10:40;5.95;;;1.80;;
60851;SDS011;48553;50.766;2.900;2023-10-19T12:13:40;6.55;;;1.63;;
60851;SDS011;48553;50.766;2.900;2023-10-19T12:16:45;5.28;;;1.50;;
60851;SDS011;48553;50.766;2.900;2023-10-19T12:19:45;5.88;;;1.70;;
60851;SDS011;48553;50.766;2.900;2023-10-19T12:22:46;7.07;;;1.95;;
60851;SDS011;48553;50.766;2.900;2023-10-19T12:25:47;6.63;;;1.90;;
60851;SDS011;48553;50.766;2.900;2023-10-19T12:28:48;4.10;;;1.58;;
60851;SDS011;48553;50.766;2.900;2023-10-19T12:31:49;7.80;;;1.90;;
60851;SDS011;48553;50.766;2.900;2023-10-19T12:34:50;5.30;;;1.98;;
60851;SDS011;48553;50.766;2.900;2023-10-19T12:37:53;6.28;;;1.95;;
60851;SDS011;48553;50.766;2.900;2023-10-19T12:40:55;6.97;;;1.75;;
60851;SDS011;48553;50.766;2.900;2023-10-19T12:43:56;7.50;;;1.90;;
60851;SDS011;48553;50.766;2.900;2023-10-19T12:47:08;8.20;;;1.67;;
60851;SDS011;48553;50.766;2.900;2023-10-19T12:50:15;5.70;;;1.98;;
60851;SDS011;48553;50.766;2.900;2023-10-19T12:53:15;4.95;;;1.50;;
60851;SDS011;48553;50.766;2.900;2023-10-19T12:56:16;7.82;;;1.88;;
60851;SDS011;48553;50.766;2.900;2023-10-19T12:59:18;6.13;;;1.65;;
60851;SDS011;48553;50.766;2.900;2023-10-19T13:02:19;8.75;;;1.90;;
60851;SDS011;48553;50.766;2.900;2023-10-19T13:05:20;7.43;;;2.00;;
60851;SDS011;48553;50.766;2.900;2023-10-19T13:08:21;7.22;;;2.00;;
60851;SDS011;48553;50.766;2.900;2023-10-19T13:11:21;5.57;;;1.75;;
60851;SDS011;48553;50.766;2.900;2023-10-19T13:14:22;7.13;;;2.10;;
60851;SDS011;48553;50.766;2.900;2023-10-19T13:17:22;5.68;;;1.48;;
60851;SDS011;48553;50.766;2.900;2023-10-19T13:20:25;7.32;;;1.85;;
60851;SDS011;48553;50.766;2.900;2023-10-19T13:23:25;5.95;;;1.92;;
60851;SDS011;48553;50.766;2.900;2023-10-19T13:26:26;9.27;;;1.80;;
60851;SDS011;48553;50.766;2.900;2023-10-19T13:29:27;7.13;;;1.90;;
60851;SDS011;48553;50.766;2.900;2023-10-19T13:32:30;7.43;;;1.92;;
60851;SDS011;48553;50.766;2.900;2023-10-19T13:35:32;8.25;;;2.00;;
60851;SDS011;48553;50.766;2.900;2023-10-19T13:38:33;6.65;;;2.05;;
60851;SDS011;48553;50.766;2.900;2023-10-19T13:41:34;8.98;;;2.20;;
60851;SDS011;48553;50.766;2.900;2023-10-19T13:44:36;7.70;;;2.25;;
60851;SDS011;48553;50.766;2.900;2023-10-19T13:47:37;7.18;;;2.20;;
60851;SDS011;48553;50.766;2.900;2023-10-19T13:50:45;4.90;;;1.70;;
60851;SDS011;48553;50.766;2.900;2023-10-19T13:53:49;7.72;;;2.15;;
60851;SDS011;48553;50.766;2.900;2023-10-19T13:56:50;7.22;;;2.20;;
60851;SDS011;48553;50.766;2.900;2023-10-19T13:59:50;5.30;;;1.90;;
60851;SDS011;48553;50.766;2.900;2023-10-19T14:02:51;7.93;;;2.00;;
60851;SDS011;48553;50.766;2.900;2023-10-19T14:05:52;6.72;;;1.88;;
60851;SDS011;48553;50.766;2.900;2023-10-19T14:08:56;7.00;;;1.65;;
60851;SDS011;48553;50.766;2.900;2023-10-19T14:11:57;6.53;;;1.95;;
60851;SDS011;48553;50.766;2.900;2023-10-19T14:14:57;4.90;;;1.50;;
60851;SDS011;48553;50.766;2.900;2023-10-19T14:17:58;7.43;;;1.98;;
60851;SDS011;48553;50.766;2.900;2023-10-19T14:20:58;6.07;;;1.80;;
60851;SDS011;48553;50.766;2.900;2023-10-19T14:23:59;7.10;;;1.95;;
60851;SDS011;48553;50.766;2.900;2023-10-19T14:26:59;5.78;;;1.70;;
60851;SDS011;48553;50.766;2.900;2023-10-19T14:30:00;8.00;;;1.70;;
60851;SDS011;48553;50.766;2.900;2023-10-19T14:33:01;5.07;;;1.63;;
60851;SDS011;48553;50.766;2.900;2023-10-19T14:36:02;7.18;;;1.55;;
60851;SDS011;48553;50.766;2.900;2023-10-19T14:39:04;5.43;;;1.73;;
60851;SDS011;48553;50.766;2.900;2023-10-19T14:42:05;7.55;;;1.73;;
60851;SDS011;48553;50.766;2.900;2023-10-19T14:45:11;5.65;;;1.50;;
60851;SDS011;48553;50.766;2.900;2023-10-19T14:48:16;9.65;;;1.88;;
60851;SDS011;48553;50.766;2.900;2023-10-19T14:51:19;6.05;;;1.70;;
60851;SDS011;48553;50.766;2.900;2023-10-19T14:54:20;7.88;;;1.73;;
60851;SDS011;48553;50.766;2.900;2023-10-19T14:57:21;9.32;;;1.80;;
60851;SDS011;48553;50.766;2.900;2023-10-19T15:00:22;6.88;;;1.50;;
60851;SDS011;48553;50.766;2.900;2023-10-19T15:03:44;9.77;;;1.65;;
60851;SDS011;48553;50.766;2.900;2023-10-19T15:06:44;6.82;;;1.33;;
60851;SDS011;48553;50.766;2.900;2023-10-19T15:09:44;6.88;;;1.73;;
60851;SDS011;48553;50.766;2.900;2023-10-19T15:12:47;5.18;;;1.50;;
60851;SDS011;48553;50.766;2.900;2023-10-19T15:15:48;4.80;;;1.55;;
60851;SDS011;48553;50.766;2.900;2023-10-19T15:18:49;11.55;;;1.70;;
60851;SDS011;48553;50.766;2.900;2023-10-19T15:21:49;4.22;;;1.40;;
60851;SDS011;48553;50.766;2.900;2023-10-19T15:24:52;6.68;;;1.60;;
60851;SDS011;48553;50.766;2.900;2023-10-19T15:27:53;3.88;;;1.40;;
60851;SDS011;48553;50.766;2.900;2023-10-19T15:30:54;5.68;;;1.67;;
60851;SDS011;48553;50.766;2.900;2023-10-19T15:33:55;5.68;;;1.65;;
60851;SDS011;48553;50.766;2.900;2023-10-19T15:36:55;5.07;;;1.63;;
60851;SDS011;48553;50.766;2.900;2023-10-19T15:39:56;5.70;;;1.73;;
60851;SDS011;48553;50.766;2.900;2023-10-19T15:42:57;5.00;;;1.50;;
60851;SDS011;48553;50.766;2.900;2023-10-19T15:46:00;7.07;;;1.70;;
60851;SDS011;48553;50.766;2.900;2023-10-19T15:49:02;5.32;;;1.63;;
60851;SDS011;48553;50.766;2.900;2023-10-19T15:52:03;6.07;;;1.67;;
60851;SDS011;48553;50.766;2.900;2023-10-19T15:55:04;7.25;;;1.70;;
60851;SDS011;48553;50.766;2.900;2023-10-19T15:58:04;4.22;;;1.52;;
60851;SDS011;48553;50.766;2.900;2023-10-19T16:01:05;4.60;;;1.70;;
60851;SDS011;48553;50.766;2.900;2023-10-19T16:04:06;7.30;;;1.80;;
60851;SDS011;48553;50.766;2.900;2023-10-19T16:07:06;3.03;;;1.40;;
60851;SDS011;48553;50.766;2.900;2023-10-19T16:10:08;4.55;;;1.40;;
60851;SDS011;48553;50.766;2.900;2023-10-19T16:13:10;4.32;;;1.40;;
60851;SDS011;48553;50.766;2.900;2023-10-19T16:16:10;4.07;;;1.50;;
60851;SDS011;48553;50.766;2.900;2023-10-19T16:19:15;4.95;;;1.50;;
60851;SDS011;48553;50.766;2.900;2023-10-19T16:22:16;4.70;;;1.30;;
60851;SDS011;48553;50.766;2.900;2023-10-19T16:25:17;6.03;;;1.50;;
60851;SDS011;48553;50.766;2.900;2023-10-19T16:28:17;4.65;;;1.30;;
60851;SDS011;48553;50.766;2.900;2023-10-19T16:31:17;3.97;;;1.40;;
60851;SDS011;48553;50.766;2.900;2023-10-19T16:34:18;4.25;;;1.20;;
60851;SDS011;48553;50.766;2.900;2023-10-19T16:37:18;3.72;;;1.40;;
60851;SDS011;48553;50.766;2.900;2023-10-19T16:40:19;3.75;;;1.38;;
60851;SDS011;48553;50.766;2.900;2023-10-19T16:43:20;2.55;;;1.30;;
60851;SDS011;48553;50.766;2.900;2023-10-19T16:46:20;4.57;;;1.48;;
60851;SDS011;48553;50.766;2.900;2023-10-19T16:49:21;5.13;;;1.63;;
60851;SDS011;48553;50.766;2.900;2023-10-19T16:52:21;3.58;;;1.40;;
60851;SDS011;48553;50.766;2.900;2023-10-19T16:55:21;3.40;;;1.35;;
60851;SDS011;48553;50.766;2.900;2023-10-19T16:58:25;5.28;;;1.67;;
60851;SDS011;48553;50.766;2.900;2023-10-19T17:01:26;2.75;;;1.30;;
60851;SDS011;48553;50.766;2.900;2023-10-19T17:04:27;3.80;;;1.50;;
60851;SDS011;48553;50.766;2.900;2023-10-19T17:07:27;5.32;;;1.70;;
60851;SDS011;48553;50.766;2.900;2023-10-19T17:10:28;5.05;;;1.60;;
60851;SDS011;48553;50.766;2.900;2023-10-19T17:13:29;3.90;;;1.50;;
60851;SDS011;48553;50.766;2.900;2023-10-19T17:16:29;3.22;;;1.60;;
60851;SDS011;48553;50.766;2.900;2023-10-19T17:19:30;2.40;;;1.70;;
60851;SDS011;48553;50.766;2.900;2023-10-19T17:22:31;3.13;;;1.67;;
60851;SDS011;48553;50.766;2.900;2023-10-19T17:25:31;3.83;;;1.70;;
60851;SDS011;48553;50.766;2.900;2023-10-19T17:28:32;4.85;;;2.10;;
60851;SDS011;48553;50.766;2.900;2023-10-19T17:31:32;5.03;;;2.15;;
60851;SDS011;48553;50.766;2.900;2023-10-19T17:34:32;5.15;;;2.30;;
60851;SDS011;48553;50.766;2.900;2023-10-19T17:37:34;4.35;;;2.15;;
60851;SDS011;48553;50.766;2.900;2023-10-19T17:40:35;3.92;;;2.30;;
60851;SDS011;48553;50.766;2.900;2023-10-19T17:43:35;4.30;;;2.20;;
60851;SDS011;48553;50.766;2.900;2023-10-19T17:46:36;4.25;;;2.45;;
60851;SDS011;48553;50.766;2.900;2023-10-19T17:49:36;5.32;;;2.70;;
60851;SDS011;48553;50.766;2.900;2023-10-19T17:52:37;5.68;;;2.58;;
60851;SDS011;48553;50.766;2.900;2023-10-19T17:55:38;5.18;;;2.50;;
60851;SDS011;48553;50.766;2.900;2023-10-19T17:58:38;5.60;;;2.70;;
60851;SDS011;48553;50.766;2.900;2023-10-19T18:01:39;4.85;;;2.67;;
60851;SDS011;48553;50.766;2.900;2023-10-19T18:04:41;6.03;;;2.65;;
60851;SDS011;48553;50.766;2.900;2023-10-19T18:07:43;5.68;;;2.90;;
60851;SDS011;48553;50.766;2.900;2023-10-19T18:10:43;5.68;;;2.70;;
60851;SDS011;48553;50.766;2.900;2023-10-19T18:13:44;6.65;;;2.97;;
60851;SDS011;48553;50.766;2.900;2023-10-19T18:16:45;4.90;;;2.80;;
60851;SDS011;48553;50.766;2.900;2023-10-19T18:19:46;4.32;;;2.50;;
60851;SDS011;48553;50.766;2.900;2023-10-19T18:22:46;4.70;;;2.50;;
60851;SDS011;48553;50.766;2.900;2023-10-19T18:25:47;4.75;;;2.70;;
60851;SDS011;48553;50.766;2.900;2023-10-19T18:28:47;6.47;;;2.90;;
60851;SDS011;48553;50.766;2.900;2023-10-19T18:31:47;7.85;;;2.50;;
60851;SDS011;48553;50.766;2.900;2023-10-19T18:34:48;5.07;;;2.38;;
60851;SDS011;48553;50.766;2.900;2023-10-19T18:37:48;6.30;;;2.70;;
60851;SDS011;48553;50.766;2.900;2023-10-19T18:41:08;5.00;;;2.67;;
60851;SDS011;48553;50.766;2.900;2023-10-19T18:44:09;4.72;;;2.60;;
60851;SDS011;48553;50.766;2.900;2023-10-19T18:47:10;6.50;;;2.83;;
60851;SDS011;48553;50.766;2.900;2023-10-19T18:50:11;5.28;;;2.67;;
60851;SDS011;48553;50.766;2.900;2023-10-19T18:53:11;7.03;;;2.97;;
60851;SDS011;48553;50.766;2.900;2023-10-19T18:56:12;6.93;;;2.90;;
60851;SDS011;48553;50.766;2.900;2023-10-19T18:59:12;6.10;;;3.22;;
60851;SDS011;48553;50.766;2.900;2023-10-19T19:02:13;4.82;;;2.60;;
60851;SDS011;48553;50.766;2.900;2023-10-19T19:05:13;6.13;;;3.20;;
60851;SDS011;48553;50.766;2.900;2023-10-19T19:08:15;8.63;;;2.78;;
60851;SDS011;48553;50.766;2.900;2023-10-19T19:11:16;6.82;;;2.90;;
60851;SDS011;48553;50.766;2.900;2023-10-19T19:14:20;7.97;;;3.47;;
60851;SDS011;48553;50.766;2.900;2023-10-19T19:17:22;6.15;;;3.00;;
60851;SDS011;48553;50.766;2.900;2023-10-19T19:20:24;8.07;;;3.38;;
60851;SDS011;48553;50.766;2.900;2023-10-19T19:23:24;6.07;;;2.92;;
60851;SDS011;48553;50.766;2.900;2023-10-19T19:26:25;7.75;;;3.30;;
60851;SDS011;48553;50.766;2.900;2023-10-19T19:29:25;5.45;;;3.20;;
60851;SDS011;48553;50.766;2.900;2023-10-19T19:32:25;6.32;;;3.25;;